createdAt,value
2023-04-24T00:00:25.969Z,0.93
2023-04-24T00:02:58.235Z,0.90
2023-04-24T00:05:27.834Z,0.82
2023-04-24T00:07:56.341Z,1.20
2023-04-24T00:10:24.198Z,1.77
2023-04-24T00:12:52.029Z,1.27
2023-04-24T00:15:19.863Z,1.30
2023-04-24T00:17:48.004Z,1.40
2023-04-24T00:20:15.909Z,1.17
2023-04-24T00:22:45.060Z,1.30
2023-04-24T00:25:12.927Z,1.40
2023-04-24T00:27:40.693Z,1.40
2023-04-24T00:30:09.567Z,1.02
2023-04-24T00:32:37.443Z,1.20
2023-04-24T00:35:06.780Z,1.23
2023-04-24T00:37:34.594Z,1.23
2023-04-24T00:40:04.398Z,1.30
2023-04-24T00:42:32.613Z,1.15
2023-04-24T00:45:01.259Z,1.10
2023-04-24T00:47:29.110Z,1.00
2023-04-24T00:49:57.166Z,0.85
2023-04-24T00:52:25.322Z,1.30
2023-04-24T00:54:53.316Z,1.00
2023-04-24T00:57:24.641Z,0.93
2023-04-24T00:59:52.788Z,1.15
2023-04-24T01:02:21.678Z,1.00
2023-04-24T01:04:51.777Z,1.30
2023-04-24T01:07:22.066Z,1.23
2023-04-24T01:09:53.167Z,1.10
2023-04-24T01:12:22.431Z,1.20
2023-04-24T01:14:50.247Z,1.23
2023-04-24T01:17:18.165Z,1.35
2023-04-24T01:19:46.800Z,1.45
2023-04-24T01:22:17.268Z,1.70
2023-04-24T01:24:45.250Z,1.90
2023-04-24T01:27:14.281Z,2.15
2023-04-24T01:29:42.726Z,2.10
2023-04-24T01:32:11.694Z,2.72
2023-04-24T01:34:40.522Z,2.47
2023-04-24T01:37:08.353Z,2.60
2023-04-24T01:39:37.544Z,2.55
2023-04-24T01:42:06.902Z,2.60
2023-04-24T01:44:35.948Z,2.55
2023-04-24T01:47:05.610Z,2.70
2023-04-24T01:49:34.764Z,2.60
2023-04-24T01:52:02.588Z,2.72
2023-04-24T01:54:32.325Z,2.47
2023-04-24T01:57:03.028Z,2.70
2023-04-24T01:59:31.971Z,2.70
2023-04-24T02:01:59.873Z,2.47
2023-04-24T02:04:27.759Z,2.75
2023-04-24T02:06:55.936Z,2.78
2023-04-24T02:09:23.838Z,2.95
2023-04-24T02:11:52.311Z,2.92
2023-04-24T02:14:21.584Z,2.83
2023-04-24T02:16:49.483Z,2.95
2023-04-24T02:19:17.449Z,3.20
2023-04-24T02:21:45.242Z,3.20
2023-04-24T02:24:13.124Z,3.13
2023-04-24T02:26:41.237Z,3.22
2023-04-24T02:29:09.162Z,3.10
2023-04-24T02:31:38.425Z,3.25
2023-04-24T02:34:06.668Z,3.13
2023-04-24T02:36:34.653Z,3.45
2023-04-24T02:39:04.581Z,3.90
2023-04-24T02:41:33.861Z,3.60
2023-04-24T02:44:01.630Z,3.70
2023-04-24T02:46:29.511Z,3.55
2023-04-24T02:48:58.777Z,3.60
2023-04-24T02:51:26.615Z,4.07
2023-04-24T02:53:54.465Z,3.75
2023-04-24T02:56:22.298Z,4.00
2023-04-24T02:58:50.165Z,4.38
2023-04-24T03:01:18.924Z,4.13
2023-04-24T03:03:47.008Z,3.75
2023-04-24T03:06:16.533Z,4.35
2023-04-24T03:08:44.375Z,4.43
2023-04-24T03:11:12.743Z,4.22
2023-04-24T03:13:40.668Z,4.45
2023-04-24T03:16:08.460Z,4.38
2023-04-24T03:18:36.372Z,4.05
2023-04-24T03:21:05.564Z,4.40
2023-04-24T03:23:35.394Z,4.53
2023-04-24T03:26:03.517Z,4.18
2023-04-24T03:28:32.245Z,4.07
2023-04-24T03:31:05.121Z,4.32
2023-04-24T03:33:37.306Z,4.20
2023-04-24T03:36:06.439Z,4.10
2023-04-24T03:38:42.208Z,4.22
2023-04-24T03:41:39.172Z,4.38
2023-04-24T03:44:17.508Z,4.20
2023-04-24T03:46:46.130Z,3.92
2023-04-24T03:49:14.008Z,4.30
2023-04-24T03:51:45.075Z,4.53
2023-04-24T03:54:20.853Z,4.28
2023-04-24T03:56:48.887Z,3.90
2023-04-24T03:59:17.721Z,4.22
2023-04-24T04:01:50.395Z,4.28
2023-04-24T04:04:19.089Z,4.00
2023-04-24T04:06:47.732Z,4.38
2023-04-24T04:09:15.992Z,4.63
2023-04-24T04:11:45.321Z,4.55
2023-04-24T04:14:13.821Z,5.07
2023-04-24T04:16:45.039Z,4.05
2023-04-24T04:19:13.522Z,4.05
2023-04-24T04:21:41.284Z,4.25
2023-04-24T04:24:21.597Z,4.07
2023-04-24T04:26:52.027Z,3.90
2023-04-24T04:29:26.959Z,4.55
2023-04-24T04:31:56.213Z,3.67
2023-04-24T04:34:24.507Z,4.05
2023-04-24T04:36:53.790Z,4.13
2023-04-24T04:39:37.013Z,4.72
2023-04-24T04:42:12.507Z,3.80
2023-04-24T04:44:43.738Z,4.25
2023-04-24T04:47:17.235Z,4.05
2023-04-24T04:49:45.658Z,3.92
2023-04-24T04:52:26.156Z,4.05
2023-04-24T04:54:59.869Z,4.13
2023-04-24T04:57:40.699Z,4.32
2023-04-24T05:00:11.441Z,4.20
2023-04-24T05:02:47.423Z,4.10
2023-04-24T05:05:16.066Z,3.58
2023-04-24T05:07:43.968Z,4.00
2023-04-24T05:10:12.279Z,3.40
2023-04-24T05:12:44.192Z,3.95
2023-04-24T05:17:41.618Z,3.10
2023-04-24T05:20:10.727Z,3.92
2023-04-24T05:22:38.903Z,3.42
2023-04-24T05:25:07.336Z,3.25
2023-04-24T05:27:38.947Z,3.70
2023-04-24T05:30:29.633Z,3.25
2023-04-24T05:33:02.338Z,3.45
2023-04-24T05:35:31.918Z,3.30
2023-04-24T05:37:59.780Z,2.92
2023-04-24T05:40:28.313Z,3.10
2023-04-24T05:42:56.116Z,3.22
2023-04-24T05:45:28.036Z,3.33
2023-04-24T05:47:56.181Z,3.45
2023-04-24T05:50:24.154Z,3.58
2023-04-24T05:52:51.969Z,3.63
2023-04-24T05:55:26.378Z,3.47
2023-04-24T05:57:54.929Z,3.55
2023-04-24T06:00:23.057Z,3.60
2023-04-24T06:03:02.311Z,3.65
2023-04-24T06:05:31.199Z,3.95
2023-04-24T06:07:59.481Z,3.75
2023-04-24T06:10:32.003Z,3.17
2023-04-24T06:13:01.375Z,3.92
2023-04-24T06:15:31.978Z,3.47
2023-04-24T06:18:06.943Z,3.53
2023-04-24T06:20:35.549Z,3.10
2023-04-24T06:23:04.001Z,2.92
2023-04-24T06:25:34.752Z,2.70
2023-04-24T06:28:02.893Z,2.50
2023-04-24T06:30:31.906Z,3.05
2023-04-24T06:33:09.094Z,2.60
2023-04-24T06:35:42.717Z,3.00
2023-04-24T06:38:10.579Z,2.92
2023-04-24T06:40:39.706Z,3.13
2023-04-24T06:43:07.882Z,2.95
2023-04-24T06:45:36.062Z,3.03
2023-04-24T06:48:04.081Z,2.70
2023-04-24T06:50:32.112Z,2.70
2023-04-24T06:53:01.242Z,2.70
2023-04-24T06:55:29.116Z,2.50
2023-04-24T06:57:57.006Z,2.33
2023-04-24T07:00:25.779Z,2.72
2023-04-24T07:02:53.724Z,2.40
2023-04-24T07:05:21.931Z,2.10
2023-04-24T07:07:50.716Z,2.10
2023-04-24T07:10:21.084Z,2.08
2023-04-24T07:12:48.985Z,2.08
2023-04-24T07:15:17.233Z,1.90
2023-04-24T07:17:45.400Z,2.10
2023-04-24T07:20:15.439Z,1.67
2023-04-24T07:22:43.321Z,1.60
2023-04-24T07:25:11.406Z,1.40
2023-04-24T07:27:40.680Z,1.60
2023-04-24T07:30:09.691Z,1.23
2023-04-24T07:32:37.624Z,1.58
2023-04-24T07:35:05.966Z,1.20
2023-04-24T07:37:33.882Z,1.20
2023-04-24T07:40:01.707Z,1.10
2023-04-24T07:42:31.424Z,0.80
2023-04-24T07:45:01.058Z,0.77
2023-04-24T07:47:29.182Z,0.70
2023-04-24T07:49:57.063Z,0.50
2023-04-24T07:52:25.748Z,0.50
2023-04-24T07:54:59.265Z,0.40
2023-04-24T07:57:27.246Z,0.50
2023-04-24T07:59:55.155Z,0.40
2023-04-24T08:02:27.638Z,0.38
2023-04-24T08:04:55.877Z,0.40
2023-04-24T08:07:26.133Z,0.55
2023-04-24T08:09:54.141Z,0.38
2023-04-24T08:12:22.164Z,0.55
2023-04-24T08:14:50.067Z,0.50
2023-04-24T08:17:18.579Z,0.50
2023-04-24T08:19:49.522Z,0.52
2023-04-24T08:22:17.486Z,0.40
2023-04-24T08:24:45.649Z,0.68
2023-04-24T08:27:13.472Z,0.90
2023-04-24T08:29:41.434Z,1.20
2023-04-24T08:32:09.579Z,1.02
2023-04-24T08:34:37.648Z,1.25
2023-04-24T08:37:06.826Z,1.60
2023-04-24T08:39:34.736Z,1.33
2023-04-24T08:42:06.442Z,1.73
2023-04-24T08:44:34.710Z,1.40
2023-04-24T08:47:03.954Z,1.50
2023-04-24T08:49:32.323Z,1.48
2023-04-24T08:52:03.138Z,1.77
2023-04-24T08:54:33.497Z,1.65
2023-04-24T08:57:04.603Z,1.70
2023-04-24T08:59:33.578Z,2.00
2023-04-24T09:02:02.367Z,2.00
2023-04-24T09:04:31.586Z,1.70
2023-04-24T09:07:00.544Z,1.63
2023-04-24T09:09:34.702Z,1.60
2023-04-24T09:12:04.741Z,1.50
2023-04-24T09:14:34.126Z,1.60
2023-04-24T09:17:03.487Z,1.30
2023-04-24T09:19:31.602Z,1.30
2023-04-24T09:22:00.037Z,1.48
2023-04-24T09:24:28.030Z,1.92
2023-04-24T09:27:02.624Z,1.75
2023-04-24T09:29:31.053Z,1.73
2023-04-24T09:31:59.161Z,1.80
2023-04-24T09:34:28.585Z,1.80
2023-04-24T09:36:57.679Z,1.70
2023-04-24T09:39:25.908Z,2.03
2023-04-24T09:41:55.686Z,1.80
2023-04-24T09:44:29.065Z,1.90
2023-04-24T09:46:58.907Z,2.03
2023-04-24T09:49:28.976Z,2.15
2023-04-24T09:52:05.334Z,1.80
2023-04-24T09:54:34.169Z,2.28
2023-04-24T09:57:02.161Z,2.20
2023-04-24T09:59:31.956Z,2.40
2023-04-24T10:02:01.257Z,2.70
2023-04-24T10:04:31.241Z,2.53
2023-04-24T10:07:00.810Z,2.60
2023-04-24T10:09:29.171Z,2.50
2023-04-24T10:11:57.370Z,2.75
2023-04-24T10:14:26.894Z,3.25
2023-04-24T10:16:59.056Z,2.95
2023-04-24T10:19:28.719Z,2.70
2023-04-24T10:21:58.339Z,2.90
2023-04-24T10:24:26.767Z,3.20
2023-04-24T10:26:54.870Z,2.90
2023-04-24T10:29:23.445Z,2.95
2023-04-24T10:31:51.561Z,3.10
2023-04-24T10:34:23.802Z,3.30
2023-04-24T10:36:57.243Z,3.33
2023-04-24T10:39:27.668Z,2.85
2023-04-24T10:41:58.298Z,2.83
2023-04-24T10:44:26.589Z,3.10
2023-04-24T10:46:56.766Z,3.10
2023-04-24T10:49:32.394Z,3.00
2023-04-24T10:52:03.675Z,2.78
2023-04-24T10:54:37.658Z,2.92
2023-04-24T10:57:29.806Z,2.80
2023-04-24T11:00:16.500Z,2.70
2023-04-24T11:02:49.896Z,2.60
2023-04-24T11:05:19.662Z,2.38
2023-04-24T11:08:12.859Z,2.75
2023-04-24T11:10:42.147Z,2.58
2023-04-24T11:13:10.977Z,2.38
2023-04-24T11:15:43.232Z,2.53
2023-04-24T11:18:15.727Z,2.58
2023-04-24T11:20:46.873Z,2.15
2023-04-24T11:23:15.607Z,2.83
2023-04-24T11:25:43.846Z,2.58
2023-04-24T11:28:17.310Z,2.50
2023-04-24T11:30:45.451Z,2.35
2023-04-24T11:33:14.072Z,2.60
2023-04-24T11:35:42.753Z,2.15
2023-04-24T11:38:24.117Z,2.42
2023-04-24T11:40:53.985Z,2.10
2023-04-24T11:43:23.102Z,2.50
2023-04-24T11:45:51.757Z,2.45
2023-04-24T11:48:23.388Z,2.20
2023-04-24T11:50:51.994Z,2.20
2023-04-24T11:53:22.794Z,2.15
2023-04-24T11:55:50.749Z,2.35
2023-04-24T11:58:22.668Z,2.15
2023-04-24T12:00:58.513Z,2.30
2023-04-24T12:03:26.761Z,2.50
2023-04-24T12:05:55.043Z,2.60
2023-04-24T12:08:31.283Z,2.13
2023-04-24T12:11:00.293Z,2.60
2023-04-24T12:13:28.080Z,2.05
2023-04-24T12:15:56.781Z,2.10
2023-04-24T12:18:24.994Z,2.30
2023-04-24T12:20:52.788Z,2.28
2023-04-24T12:26:14.804Z,2.17
2023-04-24T12:28:42.732Z,2.63
2023-04-24T12:31:10.546Z,2.20
2023-04-24T12:33:39.693Z,1.80
2023-04-24T12:36:08.007Z,1.60
2023-04-24T12:38:41.590Z,2.17
2023-04-24T12:41:10.820Z,1.60
2023-04-24T12:43:41.099Z,1.90
2023-04-24T12:46:09.326Z,1.90
2023-04-24T12:48:37.266Z,1.80
2023-04-24T12:51:05.606Z,1.75
2023-04-24T12:53:33.459Z,1.80
2023-04-24T12:56:01.514Z,1.50
2023-04-24T12:58:29.349Z,1.30
2023-04-24T13:00:58.711Z,1.67
2023-04-24T13:03:26.737Z,1.92
2023-04-24T13:05:54.678Z,1.52
2023-04-24T13:08:22.719Z,1.45
2023-04-24T13:10:52.003Z,1.40
2023-04-24T13:13:19.907Z,1.60
2023-04-24T13:15:47.753Z,1.88
2023-04-24T13:18:17.009Z,1.67
2023-04-24T13:20:45.033Z,1.42
2023-04-24T13:23:12.974Z,1.40
2023-04-24T13:25:41.096Z,1.55
2023-04-24T13:28:08.934Z,1.40
2023-04-24T13:30:36.941Z,1.52
2023-04-24T13:33:05.066Z,1.60
2023-04-24T13:35:34.416Z,1.50
2023-04-24T13:38:06.895Z,1.58
2023-04-24T13:40:35.364Z,1.25
2023-04-24T13:43:03.755Z,1.55
2023-04-24T13:45:31.708Z,1.48
2023-04-24T13:47:59.604Z,2.17
2023-04-24T13:50:27.606Z,1.25
2023-04-24T13:52:57.760Z,1.42
2023-04-24T13:55:25.680Z,1.20
2023-04-24T13:57:56.029Z,1.35
2023-04-24T14:00:24.551Z,1.20
2023-04-24T14:02:52.528Z,1.30
2023-04-24T14:05:22.081Z,1.50
2023-04-24T14:07:50.023Z,1.20
2023-04-24T14:10:19.321Z,1.40
2023-04-24T14:12:47.306Z,1.30
2023-04-24T14:15:15.788Z,1.33
2023-04-24T14:17:43.747Z,1.35
2023-04-24T14:20:12.309Z,1.38
2023-04-24T14:22:40.195Z,1.50
2023-04-24T14:25:09.062Z,1.50
2023-04-24T14:27:38.298Z,1.67
2023-04-24T14:30:07.517Z,1.30
2023-04-24T14:32:35.431Z,1.30
2023-04-24T14:35:03.510Z,1.40
2023-04-24T14:37:31.346Z,1.20
2023-04-24T14:40:15.353Z,1.17
2023-04-24T14:42:48.601Z,1.50
2023-04-24T14:45:16.809Z,1.33
2023-04-24T14:47:44.819Z,1.60
2023-04-24T14:50:13.598Z,1.10
2023-04-24T14:52:41.631Z,1.15
2023-04-24T14:55:10.451Z,1.15
2023-04-24T14:57:38.719Z,1.30
2023-04-24T15:00:11.075Z,1.33
2023-04-24T15:02:42.922Z,1.20
2023-04-24T15:05:11.435Z,1.30
2023-04-24T15:07:39.790Z,1.27
2023-04-24T15:10:08.833Z,1.20
2023-04-24T15:12:36.851Z,1.05
2023-04-24T15:15:05.109Z,1.10
2023-04-24T15:17:34.754Z,1.10
2023-04-24T15:20:03.778Z,1.10
2023-04-24T15:22:31.611Z,1.10
2023-04-24T15:24:59.467Z,1.08
2023-04-24T15:27:27.373Z,1.20
2023-04-24T15:29:55.319Z,1.23
2023-04-24T15:32:23.180Z,1.23
2023-04-24T15:35:04.849Z,1.40
2023-04-24T15:37:36.310Z,1.20
2023-04-24T15:40:06.390Z,1.20
2023-04-24T15:42:34.429Z,1.50
2023-04-24T15:45:02.332Z,1.15
2023-04-24T15:47:30.656Z,1.15
2023-04-24T15:50:00.045Z,1.13
2023-04-24T15:52:28.020Z,1.15
2023-04-24T15:54:56.215Z,1.15
2023-04-24T15:57:24.179Z,1.40
2023-04-24T15:59:52.046Z,1.40
2023-04-24T16:02:20.875Z,1.20
2023-04-24T16:04:50.388Z,1.30
2023-04-24T16:07:19.930Z,1.10
2023-04-24T16:09:47.966Z,1.30
2023-04-24T16:12:15.982Z,1.30
2023-04-24T16:14:43.888Z,1.30
2023-04-24T16:17:11.952Z,1.40
2023-04-24T16:19:39.945Z,1.60
2023-04-24T16:22:08.000Z,1.05
2023-04-24T16:24:37.164Z,1.20
2023-04-24T16:27:05.179Z,1.13
2023-04-24T16:29:33.270Z,1.77
2023-04-24T16:32:01.275Z,1.30
2023-04-24T16:34:29.087Z,1.73
2023-04-24T16:36:57.393Z,1.50
2023-04-24T16:39:26.377Z,1.23
2023-04-24T16:41:58.403Z,1.30
2023-04-24T16:44:27.634Z,1.60
2023-04-24T16:46:55.708Z,1.50
2023-04-24T16:49:23.892Z,1.60
2023-04-24T16:51:51.862Z,1.52
2023-04-24T16:54:19.726Z,2.10
2023-04-24T16:56:47.606Z,2.05
2023-04-24T16:59:17.267Z,1.90
2023-04-24T17:01:45.142Z,1.60
2023-04-24T17:04:13.122Z,1.70
2023-04-24T17:06:41.212Z,2.17
2023-04-24T17:09:09.709Z,1.77
2023-04-24T17:11:37.607Z,1.70
2023-04-24T17:14:06.210Z,2.15
2023-04-24T17:16:35.492Z,1.70
2023-04-24T17:19:04.267Z,1.50
2023-04-24T17:21:32.930Z,1.83
2023-04-24T17:24:01.037Z,1.50
2023-04-24T17:26:31.281Z,1.33
2023-04-24T17:28:59.461Z,1.70
2023-04-24T17:31:27.353Z,1.50
2023-04-24T17:33:56.722Z,1.40
2023-04-24T17:36:25.051Z,1.40
2023-04-24T17:38:52.977Z,1.33
2023-04-24T17:41:21.530Z,1.40
2023-04-24T17:43:49.590Z,1.40
2023-04-24T17:46:17.765Z,1.35
2023-04-24T17:48:48.253Z,1.25
2023-04-24T17:51:18.826Z,1.15
2023-04-24T17:53:48.596Z,1.33
2023-04-24T17:56:16.518Z,1.30
2023-04-24T17:58:44.574Z,1.33
2023-04-24T18:01:12.482Z,1.45
2023-04-24T18:03:40.764Z,1.52
2023-04-24T18:06:10.240Z,1.50
2023-04-24T18:08:39.476Z,1.40
2023-04-24T18:11:07.497Z,1.40
2023-04-24T18:13:35.483Z,1.80
2023-04-24T18:16:04.038Z,1.63
2023-04-24T18:18:31.904Z,1.42
2023-04-24T18:20:59.830Z,1.52
2023-04-24T18:23:27.734Z,2.10
2023-04-24T18:25:57.070Z,2.00
2023-04-24T18:28:24.911Z,2.08
2023-04-24T18:30:53.017Z,1.70
2023-04-24T18:33:21.039Z,1.60
2023-04-24T18:35:49.586Z,1.50
2023-04-24T18:38:17.444Z,1.80
2023-04-24T18:40:45.513Z,2.25
2023-04-24T18:43:15.027Z,2.20
2023-04-24T18:45:42.932Z,2.40
2023-04-24T18:48:10.896Z,2.50
2023-04-24T18:50:40.759Z,2.08
2023-04-24T18:53:12.526Z,2.00
2023-04-24T18:55:40.976Z,2.20
2023-04-24T18:58:08.892Z,1.80
2023-04-24T19:00:38.611Z,1.50
2023-04-24T19:03:08.605Z,1.60
2023-04-24T19:05:36.710Z,1.60
2023-04-24T19:08:04.633Z,1.70
2023-04-24T19:10:34.374Z,2.10
2023-04-24T19:13:02.304Z,1.60
2023-04-24T19:15:30.794Z,1.85
2023-04-24T19:18:00.635Z,2.10
2023-04-24T19:20:28.601Z,2.03
2023-04-24T19:22:56.498Z,1.80
2023-04-24T19:25:24.615Z,1.58
2023-04-24T19:27:52.621Z,1.50
2023-04-24T19:30:20.628Z,1.83
2023-04-24T19:32:48.501Z,1.50
2023-04-24T19:35:17.825Z,1.73
2023-04-24T19:37:45.702Z,1.50
2023-04-24T19:40:13.960Z,1.50
2023-04-24T19:42:44.541Z,1.85
2023-04-24T19:45:13.401Z,1.60
2023-04-24T19:47:41.375Z,1.95
2023-04-24T19:50:09.597Z,1.70
2023-04-24T19:52:42.019Z,1.92
2023-04-24T19:55:11.014Z,2.35
2023-04-24T19:57:38.817Z,1.50
2023-04-24T20:00:08.490Z,2.58
2023-04-24T20:02:36.650Z,2.55
2023-04-24T20:05:05.121Z,2.20
2023-04-24T20:07:33.204Z,2.10
2023-04-24T20:10:02.497Z,2.17
2023-04-24T20:12:30.336Z,2.00
2023-04-24T20:14:58.317Z,1.92
2023-04-24T20:17:26.182Z,1.90
2023-04-24T20:19:54.099Z,2.20
2023-04-24T20:22:22.090Z,2.00
2023-04-24T20:24:50.525Z,2.08
2023-04-24T20:27:20.913Z,2.05
2023-04-24T20:29:48.800Z,1.98
2023-04-24T20:32:16.652Z,2.03
2023-04-24T20:34:44.541Z,2.38
2023-04-24T20:37:12.421Z,2.05
2023-04-24T20:39:40.323Z,2.10
2023-04-24T20:42:11.007Z,1.90
2023-04-24T20:44:41.784Z,2.20
2023-04-24T20:47:09.843Z,2.13
2023-04-24T20:49:37.661Z,2.38
2023-04-24T20:52:06.498Z,2.13
2023-04-24T20:54:34.421Z,1.95
2023-04-24T20:57:02.890Z,2.30
2023-04-24T20:59:30.804Z,2.28
2023-04-24T21:02:00.304Z,2.47
2023-04-24T21:04:28.198Z,2.38
2023-04-24T21:06:56.099Z,2.72
2023-04-24T21:09:23.974Z,2.60
2023-04-24T21:11:53.698Z,2.35
2023-04-24T21:14:21.626Z,2.10
2023-04-24T21:16:49.592Z,2.20
2023-04-24T21:19:18.819Z,2.30
2023-04-24T21:21:46.901Z,2.38
2023-04-24T21:24:15.698Z,2.35
2023-04-24T21:26:43.609Z,2.50
2023-04-24T21:29:11.495Z,2.20
2023-04-24T21:31:39.382Z,2.35
2023-04-24T21:34:07.327Z,2.38
2023-04-24T21:36:36.739Z,2.20
2023-04-24T21:39:04.697Z,2.58
2023-04-24T21:41:32.785Z,2.28
2023-04-24T21:44:00.666Z,2.33
2023-04-24T21:46:28.642Z,2.35
2023-04-24T21:48:56.559Z,2.50
2023-04-24T21:51:25.815Z,2.63
2023-04-24T21:53:55.059Z,2.38
2023-04-24T21:56:22.991Z,2.60
2023-04-24T21:58:50.986Z,2.42
2023-04-24T22:01:19.006Z,2.83
2023-04-24T22:03:47.236Z,3.05
2023-04-24T22:06:15.801Z,2.47
2023-04-24T22:08:47.320Z,2.55
2023-04-24T22:11:26.651Z,2.53
2023-04-24T22:13:55.550Z,2.50
2023-04-24T22:16:24.901Z,3.45
2023-04-24T22:18:55.295Z,2.50
2023-04-24T22:21:23.615Z,2.42
2023-04-24T22:23:51.788Z,2.65
2023-04-24T22:26:22.548Z,2.83
2023-04-24T22:28:50.772Z,2.75
2023-04-24T22:31:18.744Z,2.75
2023-04-24T22:33:47.964Z,2.60
2023-04-24T22:36:15.965Z,2.92
2023-04-24T22:38:43.901Z,2.55
2023-04-24T22:41:12.120Z,3.38
2023-04-24T22:43:41.628Z,2.90
2023-04-24T22:46:09.890Z,2.53
2023-04-24T22:48:37.947Z,2.53
2023-04-24T22:51:06.598Z,2.75
2023-04-24T22:53:36.443Z,2.58
2023-04-24T22:56:04.555Z,2.92
2023-04-24T22:58:33.065Z,2.63
2023-04-24T23:01:02.399Z,2.75
2023-04-24T23:03:31.714Z,2.97
2023-04-24T23:05:59.643Z,2.83
2023-04-24T23:08:27.479Z,2.65
2023-04-24T23:10:55.309Z,2.80
2023-04-24T23:13:23.192Z,2.90
2023-04-24T23:15:53.311Z,2.35
2023-04-24T23:18:23.844Z,2.75
2023-04-24T23:20:51.927Z,2.75
2023-04-24T23:23:20.100Z,2.47
2023-04-24T23:25:47.944Z,2.88
2023-04-24T23:28:16.015Z,3.00
2023-04-24T23:30:43.768Z,2.90
2023-04-24T23:33:11.775Z,2.78
2023-04-24T23:35:41.111Z,2.85
2023-04-24T23:38:08.999Z,2.40
2023-04-24T23:40:36.813Z,2.70
2023-04-24T23:43:07.879Z,2.83
2023-04-24T23:45:37.025Z,2.50
2023-04-24T23:48:05.886Z,2.53
2023-04-24T23:50:34.033Z,2.55
2023-04-24T23:53:03.503Z,2.50
2023-04-24T23:55:31.764Z,2.70
2023-04-24T23:57:59.558Z,2.67
